createdAt,value
2018-02-21T00:01:23.679Z,88.00
2018-02-21T00:03:50.469Z,88.00
2018-02-21T00:06:17.956Z,88.30
2018-02-21T00:08:44.197Z,88.40
2018-02-21T00:11:10.444Z,88.40
2018-02-21T00:13:37.158Z,88.60
2018-02-21T00:16:04.140Z,88.50
2018-02-21T00:18:30.378Z,88.50
2018-02-21T00:20:57.197Z,88.60
2018-02-21T00:23:24.853Z,88.20
2018-02-21T00:25:52.288Z,88.10
2018-02-21T00:28:18.554Z,88.10
2018-02-21T00:30:46.115Z,87.70
2018-02-21T00:33:13.577Z,87.90
2018-02-21T00:35:40.562Z,87.90
2018-02-21T00:38:06.818Z,87.80
2018-02-21T00:40:33.101Z,87.90
2018-02-21T00:43:00.098Z,87.90
2018-02-21T00:45:26.530Z,87.90
2018-02-21T00:47:52.794Z,88.10
2018-02-21T00:50:19.442Z,88.30
2018-02-21T00:52:46.322Z,88.50
2018-02-21T00:55:13.755Z,88.30
2018-02-21T00:57:39.997Z,88.30
2018-02-21T01:00:07.178Z,88.50
2018-02-21T01:02:34.837Z,88.40
2018-02-21T01:05:01.810Z,88.90
2018-02-21T01:07:28.106Z,88.80
2018-02-21T01:09:54.378Z,88.80
2018-02-21T01:12:20.635Z,88.90
2018-02-21T01:14:47.226Z,88.80
2018-02-21T01:17:14.362Z,88.80
2018-02-21T01:19:41.362Z,89.00
2018-02-21T01:22:08.041Z,88.80
2018-02-21T01:24:34.834Z,88.30
2018-02-21T01:27:01.826Z,88.90
2018-02-21T01:29:28.069Z,88.80
2018-02-21T01:31:54.746Z,88.30
2018-02-21T01:34:20.989Z,88.50
2018-02-21T01:36:47.226Z,88.50
2018-02-21T01:39:14.591Z,88.30
2018-02-21T01:41:41.577Z,88.10
2018-02-21T01:44:07.907Z,88.10
2018-02-21T01:46:34.197Z,87.90
2018-02-21T01:49:00.457Z,88.20
2018-02-21T01:51:27.886Z,88.50
2018-02-21T01:53:54.133Z,88.30
2018-02-21T01:56:21.804Z,89.60
2018-02-21T01:58:49.373Z,89.80
2018-02-21T02:01:16.933Z,89.10
2018-02-21T02:03:43.925Z,89.90
2018-02-21T02:06:10.634Z,89.00
2018-02-21T02:08:37.621Z,89.60
2018-02-21T02:11:03.884Z,89.50
2018-02-21T02:13:30.557Z,89.70
2018-02-21T02:15:57.993Z,89.30
2018-02-21T02:18:24.770Z,88.80
2018-02-21T02:20:52.215Z,89.30
2018-02-21T02:23:18.985Z,89.30
2018-02-21T02:25:46.458Z,89.10
2018-02-21T02:28:12.706Z,89.10
2018-02-21T02:30:39.525Z,88.70
2018-02-21T02:33:06.523Z,89.10
2018-02-21T02:35:32.812Z,88.90
2018-02-21T02:38:00.183Z,88.80
2018-02-21T02:40:26.442Z,88.80
2018-02-21T02:42:52.795Z,88.60
2018-02-21T02:45:19.229Z,88.80
2018-02-21T02:47:45.473Z,88.80
2018-02-21T02:50:12.107Z,88.90
2018-02-21T02:52:39.423Z,88.70
2018-02-21T02:55:06.884Z,89.20
2018-02-21T02:57:35.154Z,88.60
2018-02-21T03:00:02.840Z,88.70
2018-02-21T03:02:30.399Z,88.90
2018-02-21T03:04:57.475Z,88.60
2018-02-21T03:07:23.727Z,88.60
2018-02-21T03:09:49.995Z,88.70
2018-02-21T03:12:16.260Z,89.00
2018-02-21T03:14:44.018Z,89.10
2018-02-21T03:17:11.490Z,89.40
2018-02-21T03:19:38.530Z,89.00
2018-02-21T03:22:05.986Z,90.00
2018-02-21T03:24:33.570Z,89.60
2018-02-21T03:27:00.586Z,89.90
2018-02-21T03:29:26.849Z,89.90
2018-02-21T03:31:54.413Z,90.20
2018-02-21T03:34:21.418Z,90.40
2018-02-21T03:36:47.666Z,90.40
2018-02-21T03:39:14.251Z,90.80
2018-02-21T03:41:41.242Z,90.80
2018-02-21T03:44:07.578Z,90.80
2018-02-21T03:46:34.171Z,90.90
2018-02-21T03:49:01.186Z,90.50
2018-02-21T03:51:27.848Z,90.50
2018-02-21T03:53:54.614Z,90.30
2018-02-21T03:56:22.069Z,89.40
2018-02-21T03:58:49.551Z,90.30
2018-02-21T04:01:16.149Z,90.00
2018-02-21T04:03:42.426Z,89.70
2018-02-21T04:06:09.401Z,89.60
2018-02-21T04:08:35.977Z,89.60
2018-02-21T04:11:02.251Z,89.50
2018-02-21T04:13:29.665Z,89.60
2018-02-21T04:15:56.412Z,89.60
2018-02-21T04:18:22.666Z,89.70
2018-02-21T04:20:49.523Z,89.80
2018-02-21T04:23:16.510Z,89.40
2018-02-21T04:25:58.930Z,89.40
2018-02-21T04:28:25.189Z,89.70
2018-02-21T04:30:52.060Z,89.40
2018-02-21T04:33:19.045Z,89.30
2018-02-21T04:35:45.292Z,89.30
2018-02-21T04:38:11.898Z,89.40
2018-02-21T04:40:38.941Z,89.60
2018-02-21T04:43:05.281Z,89.60
2018-02-21T04:45:32.289Z,89.90
2018-02-21T04:47:58.581Z,89.90
2018-02-21T04:50:26.345Z,90.30
2018-02-21T04:52:54.026Z,90.20
2018-02-21T04:55:27.628Z,90.20
2018-02-21T04:58:00.273Z,90.40
2018-02-21T05:00:27.165Z,90.60
2018-02-21T05:02:53.417Z,90.80
2018-02-21T05:05:19.684Z,90.70
2018-02-21T05:07:45.948Z,90.80
2018-02-21T05:10:13.418Z,90.80
2018-02-21T05:12:41.084Z,91.00
2018-02-21T05:15:09.482Z,90.90
2018-02-21T05:17:36.204Z,90.90
2018-02-21T05:20:03.238Z,91.20
2018-02-21T05:22:30.066Z,91.20
2018-02-21T05:24:56.930Z,90.30
2018-02-21T05:27:23.183Z,91.20
2018-02-21T05:29:50.169Z,91.50
2018-02-21T05:32:16.906Z,91.50
2018-02-21T05:34:43.138Z,91.20
2018-02-21T05:37:09.386Z,92.10
2018-02-21T05:39:35.649Z,91.50
2018-02-21T05:42:02.540Z,92.00
2018-02-21T05:44:29.523Z,91.90
2018-02-21T05:46:55.774Z,91.90
2018-02-21T05:49:22.569Z,91.80
2018-02-21T05:51:49.949Z,92.10
2018-02-21T05:54:17.371Z,92.00
2018-02-21T05:56:43.629Z,91.70
2018-02-21T05:59:10.621Z,91.50
2018-02-21T06:01:37.114Z,91.50
2018-02-21T06:04:04.106Z,91.40
2018-02-21T06:06:30.457Z,91.40
2018-02-21T06:08:57.305Z,91.50
2018-02-21T06:11:24.117Z,91.60
2018-02-21T06:13:50.841Z,91.70
2018-02-21T06:16:17.893Z,91.20
2018-02-21T06:18:44.873Z,91.50
2018-02-21T06:21:11.137Z,91.20
2018-02-21T06:23:38.137Z,91.00
2018-02-21T06:26:05.421Z,91.00
2018-02-21T06:28:31.669Z,91.10
2018-02-21T06:30:58.322Z,90.70
2018-02-21T06:33:24.587Z,90.20
2018-02-21T06:35:50.872Z,90.30
2018-02-21T06:38:17.185Z,90.30
2018-02-21T06:40:44.174Z,89.90
2018-02-21T06:43:10.785Z,89.90
2018-02-21T06:45:37.035Z,89.80
2018-02-21T06:48:03.930Z,89.80
2018-02-21T06:50:30.916Z,89.30
2018-02-21T06:52:58.380Z,88.90
2018-02-21T06:55:25.372Z,88.40
2018-02-21T06:57:51.617Z,88.50
2018-02-21T07:00:17.912Z,88.10
2018-02-21T07:02:44.165Z,88.10
2018-02-21T07:05:10.965Z,87.00
2018-02-21T07:07:38.685Z,87.20
2018-02-21T07:10:04.950Z,87.20
2018-02-21T07:12:31.821Z,87.50
2018-02-21T07:14:59.277Z,87.00
2018-02-21T07:17:26.242Z,86.90
2018-02-21T07:19:53.228Z,86.70
2018-02-21T07:22:19.941Z,86.70
2018-02-21T07:24:47.708Z,86.10
2018-02-21T07:27:15.265Z,85.80
2018-02-21T07:29:42.253Z,85.40
2018-02-21T07:32:09.074Z,85.40
2018-02-21T07:34:36.066Z,84.90
2018-02-21T07:37:02.322Z,84.90
2018-02-21T07:39:28.589Z,85.50
2018-02-21T07:41:55.691Z,84.80
2018-02-21T07:44:22.596Z,84.80
2018-02-21T07:46:49.577Z,85.10
2018-02-21T07:49:16.389Z,85.10
2018-02-21T07:51:44.165Z,84.10
2018-02-21T07:54:11.155Z,84.70
2018-02-21T07:56:37.409Z,84.60
2018-02-21T07:59:03.665Z,84.30
2018-02-21T08:01:30.674Z,84.30
2018-02-21T08:03:57.373Z,83.90
2018-02-21T08:06:24.801Z,83.20
2018-02-21T08:08:51.581Z,83.20
2018-02-21T08:11:18.568Z,83.00
2018-02-21T08:13:45.157Z,82.90
2018-02-21T08:16:11.410Z,82.70
2018-02-21T08:18:38.397Z,81.90
2018-02-21T08:21:05.309Z,81.90
2018-02-21T08:23:32.293Z,81.90
2018-02-21T08:26:00.037Z,81.80
2018-02-21T08:28:27.029Z,81.00
2018-02-21T08:30:53.693Z,81.00
2018-02-21T08:33:19.946Z,81.20
2018-02-21T08:35:46.922Z,80.10
2018-02-21T08:38:13.952Z,79.30
2018-02-21T08:40:40.277Z,79.30
2018-02-21T08:43:07.253Z,80.10
2018-02-21T08:45:34.237Z,78.60
2018-02-21T08:48:01.165Z,78.40
2018-02-21T08:50:27.797Z,78.10
2018-02-21T08:52:54.789Z,78.10
2018-02-21T08:55:21.026Z,78.20
2018-02-21T08:57:47.285Z,76.80
2018-02-21T09:00:14.210Z,78.50
2018-02-21T09:02:41.002Z,78.10
2018-02-21T09:05:07.986Z,77.60
2018-02-21T09:07:34.538Z,77.60
2018-02-21T09:10:00.850Z,77.20
2018-02-21T09:12:27.830Z,76.50
2018-02-21T09:14:54.649Z,76.40
2018-02-21T09:17:22.311Z,75.90
2018-02-21T09:19:49.299Z,75.20
2018-02-21T09:22:15.533Z,74.90
2018-02-21T09:24:42.501Z,76.60
2018-02-21T09:27:08.765Z,77.20
2018-02-21T09:29:35.752Z,76.50
2018-02-21T09:32:02.781Z,75.80
2018-02-21T09:34:29.780Z,76.20
2018-02-21T09:36:56.013Z,76.10
2018-02-21T09:39:22.922Z,74.80
2018-02-21T09:41:49.908Z,75.40
2018-02-21T09:44:16.720Z,75.30
2018-02-21T09:46:42.980Z,72.10
2018-02-21T09:49:09.234Z,73.00
2018-02-21T09:51:36.018Z,73.20
2018-02-21T09:54:02.361Z,72.40
2018-02-21T09:56:28.621Z,73.20
2018-02-21T09:58:55.691Z,71.70
2018-02-21T10:01:22.411Z,72.60
2018-02-21T10:03:50.066Z,72.50
2018-02-21T10:06:17.054Z,72.60
2018-02-21T10:08:43.318Z,72.50
2018-02-21T10:11:09.901Z,71.30
2018-02-21T10:13:37.561Z,71.80
2018-02-21T10:16:04.637Z,69.80
2018-02-21T10:18:30.875Z,69.60
2018-02-21T10:20:57.590Z,69.10
2018-02-21T10:23:23.826Z,70.90
2018-02-21T10:25:51.290Z,71.00
2018-02-21T10:28:18.267Z,71.00
2018-02-21T10:30:45.090Z,71.00
2018-02-21T10:33:12.085Z,72.00
2018-02-21T10:35:38.338Z,72.00
2018-02-21T10:38:04.989Z,69.90
2018-02-21T10:40:31.266Z,70.30
2018-02-21T10:42:58.921Z,71.30
2018-02-21T10:45:25.905Z,70.40
2018-02-21T10:47:52.170Z,71.20
2018-02-21T10:50:19.266Z,70.30
2018-02-21T10:52:46.254Z,69.80
2018-02-21T10:55:12.954Z,69.80
2018-02-21T10:57:40.536Z,69.80
2018-02-21T11:00:06.862Z,69.60
2018-02-21T11:02:34.170Z,70.60
2018-02-21T11:05:00.925Z,70.60
2018-02-21T11:07:27.192Z,69.50
2018-02-21T11:09:54.173Z,69.10
2018-02-21T11:12:20.433Z,69.10
2018-02-21T11:14:47.325Z,66.90
2018-02-21T11:17:13.565Z,67.50
2018-02-21T11:19:40.547Z,67.10
2018-02-21T11:22:07.162Z,67.10
2018-02-21T11:24:34.933Z,68.10
2018-02-21T11:27:01.918Z,67.00
2018-02-21T11:29:28.170Z,67.10
2018-02-21T11:31:54.746Z,67.90
2018-02-21T11:34:21.513Z,67.90
2018-02-21T11:36:48.500Z,65.40
2018-02-21T11:39:15.206Z,65.40
2018-02-21T11:41:42.194Z,64.90
2018-02-21T11:44:08.434Z,64.70
2018-02-21T11:46:34.949Z,63.90
2018-02-21T11:49:01.197Z,65.30
2018-02-21T11:51:28.321Z,65.10
2018-02-21T11:53:55.845Z,64.90
2018-02-21T11:56:22.490Z,64.90
2018-02-21T11:58:49.298Z,64.80
2018-02-21T12:01:15.546Z,63.90
2018-02-21T12:03:41.834Z,64.50
2018-02-21T12:06:08.094Z,65.10
2018-02-21T12:08:34.346Z,64.70
2018-02-21T12:11:00.694Z,65.80
2018-02-21T12:13:27.378Z,64.60
2018-02-21T12:15:53.629Z,65.30
2018-02-21T12:18:20.618Z,64.20
2018-02-21T12:20:46.882Z,64.10
2018-02-21T12:23:13.154Z,64.30
2018-02-21T12:25:41.642Z,61.90
2018-02-21T12:28:08.626Z,63.20
2018-02-21T12:30:35.426Z,63.30
2018-02-21T12:33:02.927Z,63.40
2018-02-21T12:35:29.187Z,62.50
2018-02-21T12:37:55.861Z,61.60
2018-02-21T12:40:28.124Z,62.90
2018-02-21T12:42:54.377Z,61.90
2018-02-21T12:45:21.746Z,61.10
2018-02-21T12:47:49.964Z,61.20
2018-02-21T12:50:16.746Z,61.20
2018-02-21T12:52:42.978Z,61.10
2018-02-21T12:55:09.941Z,58.60
2018-02-21T12:57:36.565Z,61.40
2018-02-21T13:00:02.858Z,59.50
2018-02-21T13:02:29.105Z,61.20
2018-02-21T13:04:55.802Z,61.80
2018-02-21T13:07:22.794Z,61.90
2018-02-21T13:09:49.235Z,61.70
2018-02-21T13:12:16.019Z,62.60
2018-02-21T13:14:44.212Z,62.10
2018-02-21T13:17:11.204Z,63.80
2018-02-21T13:19:37.450Z,63.00
2018-02-21T13:22:04.042Z,61.90
2018-02-21T13:24:30.793Z,63.20
2018-02-21T13:26:57.765Z,61.90
2018-02-21T13:29:24.437Z,61.80
2018-02-21T13:31:51.124Z,63.30
2018-02-21T13:34:18.153Z,63.60
2018-02-21T13:36:44.829Z,60.10
2018-02-21T13:39:11.818Z,61.60
2018-02-21T13:41:38.066Z,61.70
2018-02-21T13:44:04.334Z,60.50
2018-02-21T13:46:30.613Z,60.00
2018-02-21T13:48:57.437Z,60.20
2018-02-21T13:51:25.009Z,61.50
2018-02-21T13:53:51.643Z,61.40
2018-02-21T13:56:18.633Z,61.30
2018-02-21T13:58:44.882Z,61.20
2018-02-21T14:01:11.365Z,61.80
2018-02-21T14:03:38.347Z,62.50
2018-02-21T14:06:04.717Z,62.40
2018-02-21T14:08:30.977Z,62.70
2018-02-21T14:10:57.218Z,63.40
2018-02-21T14:13:23.874Z,62.30
2018-02-21T14:15:50.922Z,62.50
2018-02-21T14:18:17.905Z,62.60
2018-02-21T14:20:44.715Z,62.60
2018-02-21T14:23:11.707Z,63.10
2018-02-21T14:25:38.604Z,62.90
2018-02-21T14:28:05.252Z,63.20
2018-02-21T14:30:32.117Z,63.70
2018-02-21T14:32:59.600Z,64.30
2018-02-21T14:35:25.842Z,64.30
2018-02-21T14:37:52.134Z,64.80
2018-02-21T14:40:18.785Z,64.70
2018-02-21T14:42:45.778Z,65.20
2018-02-21T14:45:12.690Z,65.10
2018-02-21T14:47:39.678Z,65.20
2018-02-21T14:50:06.483Z,65.20
2018-02-21T14:52:33.809Z,66.10
2018-02-21T14:55:00.063Z,65.30
2018-02-21T14:57:27.050Z,65.70
2018-02-21T14:59:53.673Z,65.80
2018-02-21T15:02:20.676Z,66.70
2018-02-21T15:04:47.021Z,66.60
2018-02-21T15:07:13.914Z,66.40
2018-02-21T15:09:40.910Z,66.50
2018-02-21T15:12:07.653Z,66.40
2018-02-21T15:14:34.325Z,66.30
2018-02-21T15:17:00.578Z,67.20
2018-02-21T15:19:26.833Z,67.20
2018-02-21T15:21:53.890Z,68.00
2018-02-21T15:24:20.833Z,67.90
2018-02-21T15:26:47.818Z,68.30
2018-02-21T15:29:14.087Z,68.30
2018-02-21T15:31:40.879Z,68.10
2018-02-21T15:34:07.139Z,69.10
2018-02-21T15:36:33.390Z,69.10
2018-02-21T15:39:02.125Z,70.50
2018-02-21T15:41:29.113Z,70.10
2018-02-21T15:43:55.917Z,70.10
2018-02-21T15:46:23.466Z,70.50
2018-02-21T15:48:50.990Z,70.90
2018-02-21T15:51:17.698Z,70.90
2018-02-21T15:53:44.699Z,71.80
2018-02-21T15:56:10.962Z,71.90
2018-02-21T15:58:38.750Z,72.30
2018-02-21T16:01:06.276Z,73.60
2018-02-21T16:03:32.530Z,73.50
2018-02-21T16:06:00.325Z,73.80
2018-02-21T16:08:27.340Z,74.20
2018-02-21T16:10:53.599Z,74.10
2018-02-21T16:13:21.061Z,74.00
2018-02-21T16:15:48.465Z,74.00
2018-02-21T16:18:14.745Z,73.90
2018-02-21T16:20:40.981Z,74.90
2018-02-21T16:23:08.565Z,75.30
2018-02-21T16:25:36.238Z,74.50
2018-02-21T16:28:03.294Z,75.10
2018-02-21T16:30:30.129Z,75.10
2018-02-21T16:32:57.167Z,76.70
2018-02-21T16:35:24.190Z,77.80
2018-02-21T16:37:50.774Z,77.80
2018-02-21T16:40:18.554Z,78.00
2018-02-21T16:42:45.546Z,78.00
2018-02-21T16:45:12.601Z,78.00
2018-02-21T16:47:39.397Z,78.50
2018-02-21T16:50:06.452Z,79.10
2018-02-21T16:52:33.782Z,79.00
2018-02-21T16:55:00.051Z,78.90
2018-02-21T16:57:26.305Z,79.30
2018-02-21T16:59:52.570Z,80.00
2018-02-21T17:02:19.363Z,79.90
2018-02-21T17:04:46.353Z,79.80
2018-02-21T17:07:12.606Z,79.80
2018-02-21T17:09:39.185Z,79.60
2018-02-21T17:12:06.245Z,79.60
2018-02-21T17:14:33.081Z,79.60
2018-02-21T17:17:00.070Z,81.20
2018-02-21T17:19:26.324Z,81.10
2018-02-21T17:21:52.866Z,80.60
2018-02-21T17:24:19.770Z,80.80
2018-02-21T17:26:47.394Z,81.50
2018-02-21T17:29:13.635Z,81.50
2018-02-21T17:31:40.233Z,81.80
2018-02-21T17:34:07.029Z,82.00
2018-02-21T17:36:33.292Z,83.00
2018-02-21T17:39:00.850Z,83.50
2018-02-21T17:41:31.972Z,83.40
2018-02-21T17:43:58.221Z,82.90
2018-02-21T17:46:25.705Z,82.70
2018-02-21T17:48:51.961Z,82.70
2018-02-21T17:51:19.015Z,83.30
2018-02-21T17:53:45.268Z,82.20
2018-02-21T17:56:11.538Z,82.70
2018-02-21T17:58:38.565Z,82.90
2018-02-21T18:01:05.250Z,82.70
2018-02-21T18:03:32.604Z,81.90
2018-02-21T18:05:59.614Z,81.90
2018-02-21T18:08:25.878Z,81.90
2018-02-21T18:10:52.441Z,81.20
2018-02-21T18:13:20.002Z,81.80
2018-02-21T18:15:47.580Z,82.10
2018-02-21T18:18:14.297Z,82.00
2018-02-21T18:20:41.308Z,82.90
2018-02-21T18:23:08.055Z,82.90
2018-02-21T18:25:34.741Z,82.70
2018-02-21T18:28:01.001Z,82.00
2018-02-21T18:30:27.633Z,82.40
2018-02-21T18:32:55.052Z,83.50
2018-02-21T18:35:21.304Z,83.50
2018-02-21T18:37:48.012Z,83.80
2018-02-21T18:40:14.714Z,84.30
2018-02-21T18:42:42.150Z,85.40
2018-02-21T18:45:08.409Z,84.50
2018-02-21T18:47:35.841Z,85.20
2018-02-21T18:50:02.131Z,85.10
2018-02-21T18:52:28.969Z,86.20
2018-02-21T18:54:55.193Z,85.50
2018-02-21T18:57:22.188Z,86.20
2018-02-21T18:59:48.782Z,86.20
2018-02-21T19:02:16.305Z,86.30
2018-02-21T19:04:42.570Z,86.20
2018-02-21T19:07:09.560Z,86.50
2018-02-21T19:09:36.177Z,86.50
2018-02-21T19:12:03.219Z,86.70
2018-02-21T19:14:31.156Z,86.50
2018-02-21T19:16:57.953Z,86.50
2018-02-21T19:19:25.289Z,85.30
2018-02-21T19:21:52.289Z,86.70
2018-02-21T19:24:19.003Z,86.70
2018-02-21T19:26:46.418Z,86.00
2018-02-21T19:29:12.684Z,85.90
2018-02-21T19:31:39.409Z,86.30
2018-02-21T19:34:06.169Z,87.00
2018-02-21T19:36:32.809Z,86.60
2018-02-21T19:38:59.482Z,86.80
2018-02-21T19:41:26.946Z,86.80
2018-02-21T19:43:53.933Z,85.90
2018-02-21T19:46:20.664Z,86.00
2018-02-21T19:48:46.917Z,86.50
2018-02-21T19:51:13.610Z,86.30
2018-02-21T19:53:40.613Z,85.90
2018-02-21T19:56:06.860Z,85.80
2018-02-21T19:58:33.458Z,85.50
2018-02-21T20:01:00.490Z,85.80
2018-02-21T20:03:28.269Z,85.40
2018-02-21T20:05:55.322Z,85.80
2018-02-21T20:08:22.699Z,86.00
2018-02-21T20:10:49.433Z,86.10
2018-02-21T20:13:16.922Z,84.90
2018-02-21T20:15:43.162Z,84.90
2018-02-21T20:18:10.076Z,85.30
2018-02-21T20:20:37.070Z,85.10
2018-02-21T20:23:03.322Z,85.10
2018-02-21T20:25:30.098Z,84.60
2018-02-21T20:27:57.089Z,84.90
2018-02-21T20:30:23.789Z,84.90
2018-02-21T20:32:51.146Z,84.40
2018-02-21T20:35:18.495Z,84.50
2018-02-21T20:37:45.268Z,84.40
2018-02-21T20:40:12.275Z,85.10
2018-02-21T20:42:38.540Z,84.20
2018-02-21T20:45:05.171Z,84.60
2018-02-21T20:47:31.433Z,84.70
2018-02-21T20:49:58.485Z,84.90
2018-02-21T20:52:25.830Z,85.00
2018-02-21T20:54:52.843Z,84.70
2018-02-21T20:57:19.533Z,84.80
2018-02-21T20:59:46.581Z,85.50
2018-02-21T21:02:13.544Z,85.50
2018-02-21T21:04:40.588Z,85.00
2018-02-21T21:07:07.597Z,85.60
2018-02-21T21:09:34.085Z,84.80
2018-02-21T21:12:01.533Z,85.30
2018-02-21T21:14:28.988Z,85.60
2018-02-21T21:16:55.814Z,85.60
2018-02-21T21:19:22.085Z,85.80
2018-02-21T21:21:49.311Z,86.20
2018-02-21T21:24:16.209Z,86.20
2018-02-21T21:26:43.861Z,86.80
2018-02-21T21:29:11.330Z,86.30
2018-02-21T21:31:38.983Z,85.90
2018-02-21T21:34:06.418Z,86.40
2018-02-21T21:36:33.192Z,86.40
2018-02-21T21:38:59.437Z,86.40
2018-02-21T21:41:26.430Z,86.30
2018-02-21T21:43:52.738Z,86.30
2018-02-21T21:46:19.653Z,85.40
2018-02-21T21:48:46.648Z,85.20
2018-02-21T21:51:13.565Z,85.20
2018-02-21T21:53:39.851Z,86.00
2018-02-21T21:56:06.162Z,85.50
2018-02-21T21:58:32.683Z,85.60
2018-02-21T22:01:00.258Z,86.30
2018-02-21T22:03:27.341Z,86.50
2018-02-21T22:05:53.615Z,86.50
2018-02-21T22:08:20.266Z,86.20
2018-02-21T22:10:48.053Z,86.20
2018-02-21T22:13:15.722Z,87.70
2018-02-21T22:15:42.706Z,86.20
2018-02-21T22:18:09.026Z,86.20
2018-02-21T22:20:35.321Z,87.20
2018-02-21T22:23:02.314Z,86.90
2018-02-21T22:25:28.898Z,86.80
2018-02-21T22:27:55.436Z,87.10
2018-02-21T22:30:22.121Z,87.40
2018-02-21T22:32:49.537Z,87.80
2018-02-21T22:35:15.785Z,87.80
2018-02-21T22:37:42.045Z,88.10
2018-02-21T22:40:09.403Z,88.20
2018-02-21T22:42:36.386Z,87.30
2018-02-21T22:45:03.114Z,87.20
2018-02-21T22:47:30.117Z,87.00
2018-02-21T22:49:56.373Z,87.10
2018-02-21T22:52:22.985Z,87.00
2018-02-21T22:54:49.248Z,87.50
2018-02-21T22:57:15.533Z,88.30
2018-02-21T22:59:42.055Z,88.10
2018-02-21T23:02:09.634Z,87.60
2018-02-21T23:04:35.901Z,87.50
2018-02-21T23:07:02.696Z,88.00
2018-02-21T23:09:29.681Z,87.00
2018-02-21T23:11:55.921Z,87.00
2018-02-21T23:14:22.930Z,86.70
2018-02-21T23:16:49.917Z,86.70
2018-02-21T23:19:16.166Z,86.70
2018-02-21T23:21:42.428Z,87.40
2018-02-21T23:24:10.736Z,86.80
2018-02-21T23:26:38.701Z,88.10
2018-02-21T23:29:06.165Z,87.40
2018-02-21T23:31:33.825Z,87.20
2018-02-21T23:34:00.819Z,86.60
2018-02-21T23:36:27.517Z,86.60
2018-02-21T23:38:55.104Z,86.30
2018-02-21T23:41:21.829Z,86.20
2018-02-21T23:43:48.850Z,86.20
2018-02-21T23:46:15.128Z,86.20
2018-02-21T23:48:41.769Z,85.70
2018-02-21T23:51:09.333Z,87.00
2018-02-21T23:53:36.314Z,86.20
2018-02-21T23:56:02.554Z,86.10
2018-02-21T23:58:29.164Z,86.90
